sensor_id;sensor_type;location;lat;lon;timestamp;pressure;altitude;pressure_sealevel;temperature;humidity
70009;BME280;59542;37.950;-122.338;2023-06-22T00:00:53;101310.13;;;20.23;56.53
70009;BME280;59542;37.950;-122.338;2023-06-22T00:03:21;101306.22;;;20.14;56.96
70009;BME280;59542;37.950;-122.338;2023-06-22T00:05:48;101302.59;;;20.03;56.36
70009;BME280;59542;37.950;-122.338;2023-06-22T00:08:15;101299.34;;;20.34;56.32
70009;BME280;59542;37.950;-122.338;2023-06-22T00:10:42;101301.91;;;20.18;56.04
70009;BME280;59542;37.950;-122.338;2023-06-22T00:13:09;101293.13;;;20.06;57.95
70009;BME280;59542;37.950;-122.338;2023-06-22T00:15:36;101296.25;;;19.66;56.90
70009;BME280;59542;37.950;-122.338;2023-06-22T00:18:05;101293.97;;;19.36;57.36
70009;BME280;59542;37.950;-122.338;2023-06-22T00:20:32;101291.59;;;19.61;57.59
70009;BME280;59542;37.950;-122.338;2023-06-22T00:23:03;101289.28;;;19.53;58.06
70009;BME280;59542;37.950;-122.338;2023-06-22T00:25:35;101292.41;;;19.40;58.31
70009;BME280;59542;37.950;-122.338;2023-06-22T00:28:02;101291.06;;;19.20;58.70
70009;BME280;59542;37.950;-122.338;2023-06-22T00:30:30;101289.28;;;19.09;59.29
70009;BME280;59542;37.950;-122.338;2023-06-22T00:32:57;101289.81;;;19.06;59.65
70009;BME280;59542;37.950;-122.338;2023-06-22T00:35:24;101282.34;;;18.96;59.46
70009;BME280;59542;37.950;-122.338;2023-06-22T00:37:59;101280.16;;;19.15;59.35
70009;BME280;59542;37.950;-122.338;2023-06-22T00:40:30;101272.03;;;18.77;59.91
70009;BME280;59542;37.950;-122.338;2023-06-22T00:42:57;101266.38;;;18.61;60.80
70009;BME280;59542;37.950;-122.338;2023-06-22T00:45:24;101268.84;;;18.80;60.16
70009;BME280;59542;37.950;-122.338;2023-06-22T00:47:55;101261.38;;;18.53;60.93
70009;BME280;59542;37.950;-122.338;2023-06-22T00:50:23;101263.44;;;18.46;61.69
70009;BME280;59542;37.950;-122.338;2023-06-22T00:52:52;101262.59;;;18.62;61.06
70009;BME280;59542;37.950;-122.338;2023-06-22T00:55:20;101259.47;;;18.54;60.99
70009;BME280;59542;37.950;-122.338;2023-06-22T00:57:48;101255.22;;;18.75;60.46
70009;BME280;59542;37.950;-122.338;2023-06-22T01:00:15;101255.75;;;18.77;60.47
70009;BME280;59542;37.950;-122.338;2023-06-22T01:02:46;101252.41;;;18.69;61.24
70009;BME280;59542;37.950;-122.338;2023-06-22T01:05:13;101252.91;;;18.83;60.72
70009;BME280;59542;37.950;-122.338;2023-06-22T01:08:27;101255.53;;;18.61;61.03
70009;BME280;59542;37.950;-122.338;2023-06-22T01:11:41;101246.59;;;18.61;62.32
70009;BME280;59542;37.950;-122.338;2023-06-22T01:16:35;101255.81;;;18.09;62.40
70009;BME280;59542;37.950;-122.338;2023-06-22T01:19:20;101251.78;;;18.29;62.21
70009;BME280;59542;37.950;-122.338;2023-06-22T01:21:52;101252.44;;;18.36;62.35
70009;BME280;59542;37.950;-122.338;2023-06-22T01:24:23;101253.16;;;18.48;61.73
70009;BME280;59542;37.950;-122.338;2023-06-22T01:29:21;101250.97;;;18.28;61.83
70009;BME280;59542;37.950;-122.338;2023-06-22T01:31:49;101254.59;;;18.34;62.51
70009;BME280;59542;37.950;-122.338;2023-06-22T01:34:17;101251.84;;;18.51;61.60
70009;BME280;59542;37.950;-122.338;2023-06-22T01:36:45;101261.97;;;18.72;60.79
70009;BME280;59542;37.950;-122.338;2023-06-22T01:39:12;101253.75;;;18.50;61.29
70009;BME280;59542;37.950;-122.338;2023-06-22T01:41:41;101257.59;;;18.54;60.86
70009;BME280;59542;37.950;-122.338;2023-06-22T01:44:09;101256.47;;;18.33;61.47
70009;BME280;59542;37.950;-122.338;2023-06-22T01:46:37;101256.44;;;18.67;60.89
70009;BME280;59542;37.950;-122.338;2023-06-22T01:49:04;101253.00;;;18.71;60.44
70009;BME280;59542;37.950;-122.338;2023-06-22T01:51:31;101252.56;;;18.63;60.75
70009;BME280;59542;37.950;-122.338;2023-06-22T01:53:58;101259.16;;;18.67;60.42
70009;BME280;59542;37.950;-122.338;2023-06-22T01:56:26;101251.13;;;18.72;60.22
70009;BME280;59542;37.950;-122.338;2023-06-22T01:59:00;101254.88;;;18.71;60.19
70009;BME280;59542;37.950;-122.338;2023-06-22T02:01:33;101256.53;;;18.72;60.27
70009;BME280;59542;37.950;-122.338;2023-06-22T02:04:12;101255.72;;;19.15;59.39
70009;BME280;59542;37.950;-122.338;2023-06-22T02:06:42;101245.81;;;19.04;58.74
70009;BME280;59542;37.950;-122.338;2023-06-22T02:09:15;101244.59;;;19.61;57.32
70009;BME280;59542;37.950;-122.338;2023-06-22T02:11:44;101241.25;;;19.81;56.39
70009;BME280;59542;37.950;-122.338;2023-06-22T02:14:12;101243.63;;;20.04;56.02
70009;BME280;59542;37.950;-122.338;2023-06-22T02:16:39;101245.31;;;19.29;57.56
70009;BME280;59542;37.950;-122.338;2023-06-22T02:19:06;101242.81;;;19.71;56.66
70009;BME280;59542;37.950;-122.338;2023-06-22T02:21:32;101248.38;;;19.87;56.01
70009;BME280;59542;37.950;-122.338;2023-06-22T02:23:59;101242.75;;;19.93;55.73
70009;BME280;59542;37.950;-122.338;2023-06-22T02:26:25;101250.22;;;20.13;55.73
70009;BME280;59542;37.950;-122.338;2023-06-22T02:28:52;101252.66;;;19.77;56.18
70009;BME280;59542;37.950;-122.338;2023-06-22T02:31:19;101249.03;;;19.45;57.01
70009;BME280;59542;37.950;-122.338;2023-06-22T02:33:46;101242.03;;;19.76;56.51
70009;BME280;59542;37.950;-122.338;2023-06-22T02:36:14;101244.09;;;19.64;57.31
70009;BME280;59542;37.950;-122.338;2023-06-22T02:38:44;101244.03;;;19.86;56.34
70009;BME280;59542;37.950;-122.338;2023-06-22T02:41:14;101241.19;;;19.75;56.70
70009;BME280;59542;37.950;-122.338;2023-06-22T02:43:47;101241.03;;;19.87;56.25
70009;BME280;59542;37.950;-122.338;2023-06-22T02:46:13;101243.91;;;19.26;57.94
70009;BME280;59542;37.950;-122.338;2023-06-22T02:48:40;101248.97;;;19.40;57.29
70009;BME280;59542;37.950;-122.338;2023-06-22T02:51:07;101238.63;;;18.93;58.64
70009;BME280;59542;37.950;-122.338;2023-06-22T02:53:33;101235.09;;;18.92;59.29
70009;BME280;59542;37.950;-122.338;2023-06-22T02:56:02;101233.31;;;18.81;59.55
70009;BME280;59542;37.950;-122.338;2023-06-22T02:58:32;101238.22;;;18.45;61.27
70009;BME280;59542;37.950;-122.338;2023-06-22T03:01:06;101249.47;;;17.58;63.49
70009;BME280;59542;37.950;-122.338;2023-06-22T03:03:33;101237.31;;;17.73;63.98
70009;BME280;59542;37.950;-122.338;2023-06-22T03:05:59;101245.28;;;17.51;64.15
70009;BME280;59542;37.950;-122.338;2023-06-22T03:08:26;101251.56;;;16.99;66.16
70009;BME280;59542;37.950;-122.338;2023-06-22T03:10:53;101247.94;;;16.82;66.94
70009;BME280;59542;37.950;-122.338;2023-06-22T03:13:19;101248.50;;;16.37;68.41
70009;BME280;59542;37.950;-122.338;2023-06-22T03:15:45;101248.75;;;16.24;69.37
70009;BME280;59542;37.950;-122.338;2023-06-22T03:18:11;101247.19;;;16.04;70.23
70009;BME280;59542;37.950;-122.338;2023-06-22T03:20:38;101251.59;;;15.27;73.42
70009;BME280;59542;37.950;-122.338;2023-06-22T03:23:04;101250.09;;;15.31;73.61
70009;BME280;59542;37.950;-122.338;2023-06-22T03:25:30;101252.50;;;15.02;74.93
70009;BME280;59542;37.950;-122.338;2023-06-22T03:27:57;101260.69;;;14.96;75.35
70009;BME280;59542;37.950;-122.338;2023-06-22T03:30:23;101263.72;;;14.81;76.10
70009;BME280;59542;37.950;-122.338;2023-06-22T03:32:49;101258.03;;;14.71;76.97
70009;BME280;59542;37.950;-122.338;2023-06-22T03:35:15;101261.19;;;14.68;76.92
70009;BME280;59542;37.950;-122.338;2023-06-22T03:37:41;101260.13;;;14.69;77.18
70009;BME280;59542;37.950;-122.338;2023-06-22T03:40:08;101261.19;;;14.68;77.41
70009;BME280;59542;37.950;-122.338;2023-06-22T03:42:35;101270.16;;;14.62;77.54
70009;BME280;59542;37.950;-122.338;2023-06-22T03:45:02;101266.19;;;14.39;78.50
70009;BME280;59542;37.950;-122.338;2023-06-22T03:47:29;101278.16;;;14.18;79.37
70009;BME280;59542;37.950;-122.338;2023-06-22T03:49:55;101280.47;;;14.15;79.66
70009;BME280;59542;37.950;-122.338;2023-06-22T03:52:22;101284.13;;;14.27;79.20
70009;BME280;59542;37.950;-122.338;2023-06-22T03:54:48;101265.69;;;14.24;79.23
70009;BME280;59542;37.950;-122.338;2023-06-22T03:57:14;101279.09;;;14.31;79.06
70009;BME280;59542;37.950;-122.338;2023-06-22T03:59:41;101285.53;;;14.30;78.99
70009;BME280;59542;37.950;-122.338;2023-06-22T04:02:07;101291.50;;;14.32;78.69
70009;BME280;59542;37.950;-122.338;2023-06-22T04:04:33;101282.63;;;14.31;78.73
70009;BME280;59542;37.950;-122.338;2023-06-22T04:07:01;101284.53;;;14.24;78.71
70009;BME280;59542;37.950;-122.338;2023-06-22T04:09:27;101285.50;;;14.05;79.73
70009;BME280;59542;37.950;-122.338;2023-06-22T04:11:53;101279.63;;;14.14;79.35
70009;BME280;59542;37.950;-122.338;2023-06-22T04:14:19;101282.97;;;14.10;79.44
70009;BME280;59542;37.950;-122.338;2023-06-22T04:16:45;101284.78;;;13.91;80.33
70009;BME280;59542;37.950;-122.338;2023-06-22T04:19:12;101279.81;;;13.94;80.27
70009;BME280;59542;37.950;-122.338;2023-06-22T04:21:43;101284.47;;;14.06;79.74
70009;BME280;59542;37.950;-122.338;2023-06-22T04:24:11;101283.03;;;14.03;79.91
70009;BME280;59542;37.950;-122.338;2023-06-22T04:26:37;101294.22;;;13.68;81.14
70009;BME280;59542;37.950;-122.338;2023-06-22T04:29:04;101287.34;;;13.79;80.59
70009;BME280;59542;37.950;-122.338;2023-06-22T04:31:37;101288.97;;;13.80;80.57
70009;BME280;59542;37.950;-122.338;2023-06-22T04:34:05;101296.22;;;13.80;80.31
70009;BME280;59542;37.950;-122.338;2023-06-22T04:36:39;101292.97;;;13.71;80.50
70009;BME280;59542;37.950;-122.338;2023-06-22T04:39:10;101295.19;;;13.81;80.28
70009;BME280;59542;37.950;-122.338;2023-06-22T04:41:38;101293.44;;;13.61;81.28
70009;BME280;59542;37.950;-122.338;2023-06-22T04:44:15;101304.00;;;13.63;81.24
70009;BME280;59542;37.950;-122.338;2023-06-22T04:47:01;101297.44;;;13.45;81.32
70009;BME280;59542;37.950;-122.338;2023-06-22T04:49:30;101292.47;;;13.42;81.21
70009;BME280;59542;37.950;-122.338;2023-06-22T04:52:08;101295.38;;;13.47;81.48
70009;BME280;59542;37.950;-122.338;2023-06-22T04:54:36;101306.16;;;13.41;82.16
70009;BME280;59542;37.950;-122.338;2023-06-22T04:57:05;101301.78;;;13.46;81.77
70009;BME280;59542;37.950;-122.338;2023-06-22T04:59:36;101299.91;;;13.47;81.54
70009;BME280;59542;37.950;-122.338;2023-06-22T05:02:05;101302.38;;;13.48;81.54
70009;BME280;59542;37.950;-122.338;2023-06-22T05:04:31;101295.72;;;13.58;80.94
70009;BME280;59542;37.950;-122.338;2023-06-22T05:07:02;101302.16;;;13.57;80.56
70009;BME280;59542;37.950;-122.338;2023-06-22T05:09:29;101300.66;;;13.67;79.40
70009;BME280;59542;37.950;-122.338;2023-06-22T05:11:55;101297.34;;;13.65;78.78
70009;BME280;59542;37.950;-122.338;2023-06-22T05:14:22;101306.78;;;13.36;79.68
70009;BME280;59542;37.950;-122.338;2023-06-22T05:16:49;101293.72;;;13.46;79.69
70009;BME280;59542;37.950;-122.338;2023-06-22T05:19:17;101293.47;;;13.55;79.17
70009;BME280;59542;37.950;-122.338;2023-06-22T05:21:44;101284.56;;;13.54;79.27
70009;BME280;59542;37.950;-122.338;2023-06-22T05:24:10;101282.75;;;13.48;79.25
70009;BME280;59542;37.950;-122.338;2023-06-22T05:26:36;101283.09;;;13.58;78.92
70009;BME280;59542;37.950;-122.338;2023-06-22T05:29:03;101275.84;;;13.59;79.28
70009;BME280;59542;37.950;-122.338;2023-06-22T05:31:29;101279.81;;;13.56;79.36
70009;BME280;59542;37.950;-122.338;2023-06-22T05:33:56;101282.97;;;13.46;79.49
70009;BME280;59542;37.950;-122.338;2023-06-22T05:36:22;101280.19;;;13.22;80.78
70009;BME280;59542;37.950;-122.338;2023-06-22T05:38:52;101291.94;;;13.27;80.86
70009;BME280;59542;37.950;-122.338;2023-06-22T05:41:18;101286.31;;;13.35;80.90
70009;BME280;59542;37.950;-122.338;2023-06-22T05:43:45;101283.16;;;13.52;80.27
70009;BME280;59542;37.950;-122.338;2023-06-22T05:46:11;101292.06;;;13.45;80.54
70009;BME280;59542;37.950;-122.338;2023-06-22T05:48:37;101280.94;;;13.35;81.02
70009;BME280;59542;37.950;-122.338;2023-06-22T05:51:04;101283.25;;;13.25;81.65
70009;BME280;59542;37.950;-122.338;2023-06-22T05:53:30;101283.66;;;13.29;81.49
70009;BME280;59542;37.950;-122.338;2023-06-22T05:55:56;101281.03;;;13.02;82.39
70009;BME280;59542;37.950;-122.338;2023-06-22T05:58:22;101284.13;;;12.99;81.94
70009;BME280;59542;37.950;-122.338;2023-06-22T06:00:49;101278.97;;;12.98;81.11
70009;BME280;59542;37.950;-122.338;2023-06-22T06:03:15;101280.84;;;12.90;81.50
70009;BME280;59542;37.950;-122.338;2023-06-22T06:05:43;101282.50;;;12.91;81.77
70009;BME280;59542;37.950;-122.338;2023-06-22T06:08:10;101277.38;;;12.83;81.83
70009;BME280;59542;37.950;-122.338;2023-06-22T06:10:36;101277.38;;;12.83;82.02
70009;BME280;59542;37.950;-122.338;2023-06-22T06:13:03;101276.72;;;12.81;82.32
70009;BME280;59542;37.950;-122.338;2023-06-22T06:15:31;101281.25;;;12.87;82.06
70009;BME280;59542;37.950;-122.338;2023-06-22T06:17:57;101276.13;;;12.79;82.16
70009;BME280;59542;37.950;-122.338;2023-06-22T06:20:25;101276.94;;;12.86;81.72
70009;BME280;59542;37.950;-122.338;2023-06-22T06:22:51;101275.28;;;12.85;81.39
70009;BME280;59542;37.950;-122.338;2023-06-22T06:25:18;101270.31;;;12.82;81.01
70009;BME280;59542;37.950;-122.338;2023-06-22T06:27:46;101265.16;;;12.87;80.68
70009;BME280;59542;37.950;-122.338;2023-06-22T06:30:15;101276.16;;;12.73;81.20
70009;BME280;59542;37.950;-122.338;2023-06-22T06:32:43;101267.44;;;12.84;81.29
70009;BME280;59542;37.950;-122.338;2023-06-22T06:35:12;101265.44;;;12.66;82.30
70009;BME280;59542;37.950;-122.338;2023-06-22T06:37:40;101270.97;;;12.71;81.83
70009;BME280;59542;37.950;-122.338;2023-06-22T06:40:08;101265.16;;;12.81;80.89
70009;BME280;59542;37.950;-122.338;2023-06-22T06:42:43;101261.25;;;12.77;80.84
70009;BME280;59542;37.950;-122.338;2023-06-22T06:45:12;101265.78;;;12.76;79.94
70009;BME280;59542;37.950;-122.338;2023-06-22T06:47:41;101256.50;;;12.65;80.91
70009;BME280;59542;37.950;-122.338;2023-06-22T06:50:08;101251.78;;;12.67;81.18
70009;BME280;59542;37.950;-122.338;2023-06-22T06:52:35;101253.81;;;12.65;80.67
70009;BME280;59542;37.950;-122.338;2023-06-22T06:55:02;101247.03;;;12.63;81.34
70009;BME280;59542;37.950;-122.338;2023-06-22T06:57:30;101244.56;;;12.61;81.29
70009;BME280;59542;37.950;-122.338;2023-06-22T06:59:57;101243.50;;;12.69;80.62
70009;BME280;59542;37.950;-122.338;2023-06-22T07:02:25;101239.38;;;12.66;80.80
70009;BME280;59542;37.950;-122.338;2023-06-22T07:04:53;101242.69;;;12.68;80.92
70009;BME280;59542;37.950;-122.338;2023-06-22T07:07:23;101238.94;;;12.69;81.09
70009;BME280;59542;37.950;-122.338;2023-06-22T07:09:49;101238.16;;;12.56;81.85
70009;BME280;59542;37.950;-122.338;2023-06-22T07:12:16;101236.25;;;12.76;81.27
70009;BME280;59542;37.950;-122.338;2023-06-22T07:14:42;101227.78;;;12.79;81.48
70009;BME280;59542;37.950;-122.338;2023-06-22T07:17:08;101227.78;;;12.79;81.13
70009;BME280;59542;37.950;-122.338;2023-06-22T07:19:34;101233.97;;;12.80;80.64
70009;BME280;59542;37.950;-122.338;2023-06-22T07:22:01;101245.53;;;12.80;80.20
70009;BME280;59542;37.950;-122.338;2023-06-22T07:24:27;101235.88;;;12.66;79.89
70009;BME280;59542;37.950;-122.338;2023-06-22T07:26:53;101242.06;;;12.73;79.62
70009;BME280;59542;37.950;-122.338;2023-06-22T07:29:20;101245.34;;;12.75;80.25
70009;BME280;59542;37.950;-122.338;2023-06-22T07:31:47;101233.81;;;12.68;80.92
70009;BME280;59542;37.950;-122.338;2023-06-22T07:34:15;101238.72;;;12.71;79.83
70009;BME280;59542;37.950;-122.338;2023-06-22T07:36:41;101232.75;;;12.69;79.40
70009;BME280;59542;37.950;-122.338;2023-06-22T07:39:07;101221.44;;;12.60;80.19
70009;BME280;59542;37.950;-122.338;2023-06-22T07:41:33;101219.56;;;12.61;80.34
70009;BME280;59542;37.950;-122.338;2023-06-22T07:44:00;101216.69;;;12.56;80.23
70009;BME280;59542;37.950;-122.338;2023-06-22T07:46:26;101221.63;;;12.59;80.04
70009;BME280;59542;37.950;-122.338;2023-06-22T07:48:52;101225.34;;;12.58;79.57
70009;BME280;59542;37.950;-122.338;2023-06-22T07:51:19;101223.25;;;12.60;79.33
70009;BME280;59542;37.950;-122.338;2023-06-22T07:53:45;101223.91;;;12.55;79.79
70009;BME280;59542;37.950;-122.338;2023-06-22T07:56:11;101218.13;;;12.58;80.16
70009;BME280;59542;37.950;-122.338;2023-06-22T07:58:38;101224.94;;;12.61;80.28
70009;BME280;59542;37.950;-122.338;2023-06-22T08:01:04;101224.72;;;12.49;80.72
70009;BME280;59542;37.950;-122.338;2023-06-22T08:03:32;101224.94;;;12.61;80.16
70009;BME280;59542;37.950;-122.338;2023-06-22T08:05:58;101215.03;;;12.55;79.67
70009;BME280;59542;37.950;-122.338;2023-06-22T08:08:24;101207.59;;;12.57;79.88
70009;BME280;59542;37.950;-122.338;2023-06-22T08:10:51;101201.78;;;12.66;79.42
70009;BME280;59542;37.950;-122.338;2023-06-22T08:13:17;101215.66;;;12.57;79.43
70009;BME280;59542;37.950;-122.338;2023-06-22T08:15:43;101205.50;;;12.59;79.70
70009;BME280;59542;37.950;-122.338;2023-06-22T08:18:09;101205.31;;;12.60;80.28
70009;BME280;59542;37.950;-122.338;2023-06-22T08:20:36;101204.31;;;12.55;79.99
70009;BME280;59542;37.950;-122.338;2023-06-22T08:23:02;101203.47;;;12.61;79.30
70009;BME280;59542;37.950;-122.338;2023-06-22T08:25:33;101210.03;;;12.65;78.60
70009;BME280;59542;37.950;-122.338;2023-06-22T08:28:01;101199.09;;;12.66;78.49
70009;BME280;59542;37.950;-122.338;2023-06-22T08:30:27;101200.56;;;12.62;78.56
70009;BME280;59542;37.950;-122.338;2023-06-22T08:32:53;101198.50;;;12.58;79.21
70009;BME280;59542;37.950;-122.338;2023-06-22T08:35:22;101194.78;;;12.59;79.42
70009;BME280;59542;37.950;-122.338;2023-06-22T08:37:48;101203.44;;;12.67;79.27
70009;BME280;59542;37.950;-122.338;2023-06-22T08:40:21;101192.69;;;12.67;78.57
70009;BME280;59542;37.950;-122.338;2023-06-22T08:42:48;101194.56;;;12.60;78.63
70009;BME280;59542;37.950;-122.338;2023-06-22T08:45:15;101190.84;;;12.61;78.09
70009;BME280;59542;37.950;-122.338;2023-06-22T08:47:41;101195.63;;;12.53;78.44
70009;BME280;59542;37.950;-122.338;2023-06-22T08:50:09;101194.56;;;12.54;78.61
70009;BME280;59542;37.950;-122.338;2023-06-22T08:52:36;101192.28;;;12.64;78.39
70009;BME280;59542;37.950;-122.338;2023-06-22T08:55:03;101190.38;;;12.71;78.12
70009;BME280;59542;37.950;-122.338;2023-06-22T08:57:30;101187.34;;;12.61;78.37
70009;BME280;59542;37.950;-122.338;2023-06-22T08:59:56;101198.28;;;12.66;78.62
70009;BME280;59542;37.950;-122.338;2023-06-22T09:02:25;101197.44;;;12.72;77.66
70009;BME280;59542;37.950;-122.338;2023-06-22T09:04:51;101199.50;;;12.70;77.47
70009;BME280;59542;37.950;-122.338;2023-06-22T09:07:22;101195.13;;;12.76;77.44
70009;BME280;59542;37.950;-122.338;2023-06-22T09:09:49;101196.81;;;12.63;77.71
70009;BME280;59542;37.950;-122.338;2023-06-22T09:12:17;101198.25;;;12.73;77.62
70009;BME280;59542;37.950;-122.338;2023-06-22T09:14:46;101195.16;;;12.69;77.60
70009;BME280;59542;37.950;-122.338;2023-06-22T09:17:13;101195.75;;;12.71;77.90
70009;BME280;59542;37.950;-122.338;2023-06-22T09:19:39;101194.28;;;12.82;77.36
70009;BME280;59542;37.950;-122.338;2023-06-22T09:22:06;101196.59;;;12.78;76.75
70009;BME280;59542;37.950;-122.338;2023-06-22T09:24:33;101199.88;;;12.80;76.45
70009;BME280;59542;37.950;-122.338;2023-06-22T09:26:59;101188.94;;;12.75;76.66
70009;BME280;59542;37.950;-122.338;2023-06-22T09:29:25;101191.59;;;12.88;76.29
70009;BME280;59542;37.950;-122.338;2023-06-22T09:31:51;101192.59;;;12.94;76.64
70009;BME280;59542;37.950;-122.338;2023-06-22T09:34:21;101183.53;;;12.88;76.50
70009;BME280;59542;37.950;-122.338;2023-06-22T09:36:47;101180.19;;;12.93;76.22
70009;BME280;59542;37.950;-122.338;2023-06-22T09:39:14;101185.22;;;12.76;76.95
70009;BME280;59542;37.950;-122.338;2023-06-22T09:41:40;101178.56;;;12.85;76.63
70009;BME280;59542;37.950;-122.338;2023-06-22T09:44:06;101176.94;;;12.84;76.76
70009;BME280;59542;37.950;-122.338;2023-06-22T09:46:32;101174.41;;;12.96;76.33
70009;BME280;59542;37.950;-122.338;2023-06-22T09:48:59;101176.03;;;12.97;76.17
70009;BME280;59542;37.950;-122.338;2023-06-22T09:51:25;101176.81;;;13.04;75.50
70009;BME280;59542;37.950;-122.338;2023-06-22T09:53:51;101177.47;;;13.06;75.50
70009;BME280;59542;37.950;-122.338;2023-06-22T09:56:19;101171.88;;;13.08;75.17
70009;BME280;59542;37.950;-122.338;2023-06-22T09:58:46;101174.31;;;13.16;74.78
70009;BME280;59542;37.950;-122.338;2023-06-22T10:01:13;101167.28;;;13.15;74.19
70009;BME280;59542;37.950;-122.338;2023-06-22T10:03:42;101163.56;;;13.09;74.83
70009;BME280;59542;37.950;-122.338;2023-06-22T10:06:09;101165.47;;;13.02;74.97
70009;BME280;59542;37.950;-122.338;2023-06-22T10:08:35;101166.94;;;13.05;75.13
70009;BME280;59542;37.950;-122.338;2023-06-22T10:11:03;101164.88;;;13.00;75.04
70009;BME280;59542;37.950;-122.338;2023-06-22T10:13:29;101169.16;;;13.08;74.62
70009;BME280;59542;37.950;-122.338;2023-06-22T10:15:56;101162.78;;;13.02;74.58
70009;BME280;59542;37.950;-122.338;2023-06-22T10:18:22;101162.38;;;12.99;74.69
70009;BME280;59542;37.950;-122.338;2023-06-22T10:20:49;101167.13;;;13.03;74.57
70009;BME280;59542;37.950;-122.338;2023-06-22T10:23:17;101166.94;;;13.05;74.33
70009;BME280;59542;37.950;-122.338;2023-06-22T10:25:44;101169.94;;;13.15;73.57
70009;BME280;59542;37.950;-122.338;2023-06-22T10:28:10;101168.94;;;13.09;73.66
70009;BME280;59542;37.950;-122.338;2023-06-22T10:30:39;101160.47;;;13.12;73.76
70009;BME280;59542;37.950;-122.338;2023-06-22T10:33:10;101165.44;;;13.09;73.53
70009;BME280;59542;37.950;-122.338;2023-06-22T10:35:37;101166.06;;;13.11;73.49
70009;BME280;59542;37.950;-122.338;2023-06-22T10:38:04;101174.72;;;13.13;74.09
70009;BME280;59542;37.950;-122.338;2023-06-22T10:40:30;101175.00;;;13.05;74.15
70009;BME280;59542;37.950;-122.338;2023-06-22T10:42:57;101172.09;;;13.06;74.20
70009;BME280;59542;37.950;-122.338;2023-06-22T10:45:23;101178.94;;;12.95;74.59
70009;BME280;59542;37.950;-122.338;2023-06-22T10:47:49;101177.72;;;12.91;74.87
70009;BME280;59542;37.950;-122.338;2023-06-22T10:50:16;101167.56;;;13.00;74.21
70009;BME280;59542;37.950;-122.338;2023-06-22T10:52:42;101178.28;;;13.07;73.79
70009;BME280;59542;37.950;-122.338;2023-06-22T10:55:09;101167.94;;;13.04;74.05
70009;BME280;59542;37.950;-122.338;2023-06-22T10:57:38;101165.06;;;13.05;73.67
70009;BME280;59542;37.950;-122.338;2023-06-22T11:00:09;101163.97;;;13.13;73.34
70009;BME280;59542;37.950;-122.338;2023-06-22T11:02:36;101159.88;;;13.10;73.16
70009;BME280;59542;37.950;-122.338;2023-06-22T11:05:03;101153.50;;;12.98;73.50
70009;BME280;59542;37.950;-122.338;2023-06-22T11:07:29;101161.56;;;13.05;73.30
70009;BME280;59542;37.950;-122.338;2023-06-22T11:09:56;101157.34;;;13.15;73.09
70009;BME280;59542;37.950;-122.338;2023-06-22T11:12:22;101159.16;;;12.83;74.25
70009;BME280;59542;37.950;-122.338;2023-06-22T11:14:48;101153.75;;;12.90;74.41
70009;BME280;59542;37.950;-122.338;2023-06-22T11:17:17;101150.44;;;12.94;73.70
70009;BME280;59542;37.950;-122.338;2023-06-22T11:19:44;101142.16;;;12.96;73.70
70009;BME280;59542;37.950;-122.338;2023-06-22T11:22:11;101147.13;;;12.92;73.95
70009;BME280;59542;37.950;-122.338;2023-06-22T11:24:37;101148.94;;;13.05;73.35
70009;BME280;59542;37.950;-122.338;2023-06-22T11:27:03;101146.25;;;12.99;73.57
70009;BME280;59542;37.950;-122.338;2023-06-22T11:29:30;101142.56;;;13.00;74.17
70009;BME280;59542;37.950;-122.338;2023-06-22T11:31:56;101133.72;;;12.86;74.79
70009;BME280;59542;37.950;-122.338;2023-06-22T11:34:22;101145.94;;;12.82;74.96
70009;BME280;59542;37.950;-122.338;2023-06-22T11:36:49;101137.81;;;12.95;74.84
70009;BME280;59542;37.950;-122.338;2023-06-22T11:39:15;101143.84;;;12.90;75.18
70009;BME280;59542;37.950;-122.338;2023-06-22T11:41:41;101139.25;;;12.98;75.02
70009;BME280;59542;37.950;-122.338;2023-06-22T11:44:08;101134.41;;;13.13;74.58
70009;BME280;59542;37.950;-122.338;2023-06-22T11:46:34;101141.13;;;12.97;74.72
70009;BME280;59542;37.950;-122.338;2023-06-22T11:49:01;101147.06;;;13.06;74.40
70009;BME280;59542;37.950;-122.338;2023-06-22T11:51:28;101151.41;;;13.07;74.05
70009;BME280;59542;37.950;-122.338;2023-06-22T11:53:57;101137.56;;;13.03;73.91
70009;BME280;59542;37.950;-122.338;2023-06-22T11:56:24;101147.03;;;13.12;74.59
70009;BME280;59542;37.950;-122.338;2023-06-22T11:58:50;101143.75;;;13.04;74.63
70009;BME280;59542;37.950;-122.338;2023-06-22T12:01:17;101137.16;;;13.06;74.82
70009;BME280;59542;37.950;-122.338;2023-06-22T12:03:43;101138.88;;;12.94;74.69
70009;BME280;59542;37.950;-122.338;2023-06-22T12:06:10;101140.00;;;13.11;73.71
70009;BME280;59542;37.950;-122.338;2023-06-22T12:08:36;101135.88;;;13.09;73.71
70009;BME280;59542;37.950;-122.338;2023-06-22T12:11:03;101137.75;;;13.08;73.36
70009;BME280;59542;37.950;-122.338;2023-06-22T12:13:29;101134.66;;;13.11;73.88
70009;BME280;59542;37.950;-122.338;2023-06-22T12:15:55;101136.31;;;13.06;74.39
70009;BME280;59542;37.950;-122.338;2023-06-22T12:18:22;101143.75;;;13.10;74.44
70009;BME280;59542;37.950;-122.338;2023-06-22T12:20:48;101130.13;;;13.05;73.76
70009;BME280;59542;37.950;-122.338;2023-06-22T12:23:15;101137.38;;;12.98;73.73
70009;BME280;59542;37.950;-122.338;2023-06-22T12:25:41;101143.38;;;13.00;74.19
70009;BME280;59542;37.950;-122.338;2023-06-22T12:28:07;101143.75;;;13.04;74.76